createdAt,value
2018-05-03T00:02:02.394Z,5.67
2018-05-03T00:04:29.888Z,5.50
2018-05-03T00:06:57.773Z,6.53
2018-05-03T00:09:25.293Z,5.37
2018-05-03T00:11:52.818Z,4.73
2018-05-03T00:14:21.096Z,4.60
2018-05-03T00:16:49.392Z,6.20
2018-05-03T00:19:16.912Z,5.90
2018-05-03T00:21:44.445Z,5.93
2018-05-03T00:24:11.987Z,7.40
2018-05-03T00:26:39.546Z,6.87
2018-05-03T00:29:07.099Z,6.67
2018-05-03T00:31:34.645Z,6.90
2018-05-03T00:34:02.163Z,7.53
2018-05-03T00:36:29.704Z,7.43
2018-05-03T00:38:57.224Z,6.90
2018-05-03T00:41:24.791Z,7.87
2018-05-03T00:43:52.296Z,6.50
2018-05-03T00:46:19.830Z,7.60
2018-05-03T00:48:47.352Z,7.40
2018-05-03T00:51:15.628Z,8.00
2018-05-03T00:53:43.934Z,6.93
2018-05-03T00:56:11.448Z,8.00
2018-05-03T00:58:39.722Z,7.07
2018-05-03T01:01:07.290Z,7.03
2018-05-03T01:03:35.582Z,6.90
2018-05-03T01:06:03.120Z,5.80
2018-05-03T01:08:31.396Z,7.20
2018-05-03T01:10:58.904Z,7.00
2018-05-03T01:13:26.449Z,5.63
2018-05-03T01:15:53.961Z,5.17
2018-05-03T01:18:21.506Z,6.67
2018-05-03T01:20:49.024Z,5.97
2018-05-03T01:23:16.545Z,7.43
2018-05-03T01:25:44.092Z,6.83
2018-05-03T01:28:11.600Z,6.63
2018-05-03T01:30:39.148Z,6.83
2018-05-03T01:33:06.655Z,6.90
2018-05-03T01:35:46.148Z,6.90
2018-05-03T01:38:13.654Z,5.67
2018-05-03T01:40:41.201Z,6.00
2018-05-03T01:43:08.717Z,6.60
2018-05-03T01:45:36.235Z,6.60
2018-05-03T01:48:03.761Z,4.77
2018-05-03T01:50:31.285Z,3.57
2018-05-03T01:52:59.603Z,4.03
2018-05-03T01:55:27.108Z,4.93
2018-05-03T01:57:54.624Z,4.70
2018-05-03T02:00:22.155Z,7.43
2018-05-03T02:02:49.677Z,7.90
2018-05-03T02:05:17.211Z,7.10
2018-05-03T02:07:44.729Z,7.37
2018-05-03T02:10:12.246Z,8.23
2018-05-03T02:12:39.793Z,7.40
2018-05-03T02:15:07.309Z,9.00
2018-05-03T02:17:35.341Z,8.30
2018-05-03T02:20:02.852Z,9.57
2018-05-03T02:22:30.407Z,8.77
2018-05-03T02:24:57.945Z,7.47
2018-05-03T02:27:25.471Z,7.87
2018-05-03T02:29:53.033Z,9.60
2018-05-03T02:32:20.539Z,6.27
2018-05-03T02:34:48.058Z,6.83
2018-05-03T02:37:16.359Z,7.30
2018-05-03T02:39:44.663Z,8.10
2018-05-03T02:42:12.176Z,6.33
2018-05-03T02:44:40.486Z,8.60
2018-05-03T02:47:07.997Z,7.13
2018-05-03T02:49:35.544Z,7.50
2018-05-03T02:52:03.079Z,7.07
2018-05-03T02:54:30.601Z,7.70
2018-05-03T03:00:56.715Z,6.70
2018-05-03T03:03:41.915Z,5.50
2018-05-03T03:06:37.755Z,5.90
2018-05-03T03:12:48.371Z,5.63
2018-05-03T03:15:45.610Z,7.40
2018-05-03T03:21:46.412Z,7.03
2018-05-03T03:24:40.839Z,7.97
2018-05-03T03:27:26.893Z,8.73
2018-05-03T03:30:06.259Z,8.27
2018-05-03T03:32:46.459Z,7.27
2018-05-03T03:38:37.317Z,7.40
2018-05-03T03:41:16.754Z,7.27
2018-05-03T03:43:56.224Z,7.70
2018-05-03T03:46:24.525Z,8.63
2018-05-03T03:48:52.068Z,7.90
2018-05-03T03:51:20.374Z,8.33
2018-05-03T03:53:47.919Z,8.00
2018-05-03T03:56:15.458Z,7.70
2018-05-03T03:58:43.801Z,7.20
2018-05-03T04:01:11.326Z,5.83
2018-05-03T04:03:38.843Z,6.93
2018-05-03T04:06:07.145Z,7.77
2018-05-03T04:08:34.694Z,8.00
2018-05-03T04:11:02.224Z,8.30
2018-05-03T04:13:30.528Z,7.77
2018-05-03T04:15:58.837Z,7.70
2018-05-03T04:18:38.319Z,8.37
2018-05-03T04:21:17.598Z,8.37
2018-05-03T04:24:07.707Z,8.80
2018-05-03T04:26:35.225Z,7.87
2018-05-03T04:29:02.761Z,7.73
2018-05-03T04:31:30.275Z,7.63
2018-05-03T04:33:57.824Z,9.10
2018-05-03T04:36:25.346Z,9.13
2018-05-03T04:38:53.638Z,9.10
2018-05-03T04:41:21.165Z,8.90
2018-05-03T04:43:48.718Z,8.77
2018-05-03T04:46:16.263Z,8.40
2018-05-03T04:48:43.786Z,7.93
2018-05-03T04:51:11.310Z,7.00
2018-05-03T04:53:38.883Z,5.60
2018-05-03T04:56:07.191Z,6.30
2018-05-03T04:58:34.860Z,5.40
2018-05-03T05:01:02.369Z,6.13
2018-05-03T05:03:29.905Z,7.83
2018-05-03T05:05:57.430Z,7.83
2018-05-03T05:08:24.934Z,8.03
2018-05-03T05:10:52.509Z,8.43
2018-05-03T05:13:20.801Z,7.57
2018-05-03T05:15:48.356Z,7.67
2018-05-03T05:18:16.665Z,8.40
2018-05-03T05:20:44.180Z,8.40
2018-05-03T05:23:11.737Z,7.67
2018-05-03T05:25:40.019Z,7.43
2018-05-03T05:28:08.319Z,6.83
2018-05-03T05:30:35.870Z,6.87
2018-05-03T05:33:03.388Z,6.93
2018-05-03T05:35:30.932Z,9.17
2018-05-03T05:37:58.462Z,8.73
2018-05-03T05:40:26.016Z,8.30
2018-05-03T05:42:53.536Z,8.80
2018-05-03T05:45:21.852Z,9.03
2018-05-03T05:47:49.393Z,8.07
2018-05-03T05:50:17.907Z,8.37
2018-05-03T05:52:45.457Z,10.30
2018-05-03T05:55:12.966Z,8.90
2018-05-03T05:57:40.494Z,9.30
2018-05-03T06:00:08.035Z,9.00
2018-05-03T06:02:35.550Z,7.47
2018-05-03T06:05:03.092Z,8.50
2018-05-03T06:07:30.613Z,9.27
2018-05-03T06:09:58.144Z,9.10
2018-05-03T06:12:26.450Z,8.97
2018-05-03T06:14:53.966Z,8.80
2018-05-03T06:17:22.298Z,9.30
2018-05-03T06:19:49.824Z,10.20
2018-05-03T06:22:17.371Z,9.80
2018-05-03T06:24:45.681Z,10.20
2018-05-03T06:27:13.197Z,9.30
2018-05-03T06:29:40.737Z,9.70
2018-05-03T06:32:08.257Z,9.83
2018-05-03T06:34:35.778Z,8.97
2018-05-03T06:37:04.076Z,9.13
2018-05-03T06:39:31.590Z,8.17
2018-05-03T06:41:59.129Z,9.53
2018-05-03T06:44:26.665Z,8.33
2018-05-03T06:46:54.172Z,9.07
2018-05-03T06:49:21.715Z,9.47
2018-05-03T06:51:49.242Z,8.90
2018-05-03T06:54:16.790Z,8.40
2018-05-03T06:56:44.310Z,8.70
2018-05-03T06:59:11.842Z,8.63
2018-05-03T07:01:39.366Z,8.40
2018-05-03T07:04:06.921Z,8.60
2018-05-03T07:06:35.205Z,7.63
2018-05-03T07:09:02.726Z,7.80
2018-05-03T07:11:30.245Z,9.13
2018-05-03T07:13:57.792Z,7.93
2018-05-03T07:16:25.386Z,7.00
2018-05-03T07:18:53.608Z,6.80
2018-05-03T07:21:22.295Z,7.50
2018-05-03T07:23:49.825Z,7.80
2018-05-03T07:26:17.367Z,8.43
2018-05-03T07:28:44.891Z,6.10
2018-05-03T07:31:12.455Z,7.50
2018-05-03T07:33:39.961Z,7.40
2018-05-03T07:36:07.487Z,6.67
2018-05-03T07:38:35.032Z,6.83
2018-05-03T07:41:02.636Z,6.73
2018-05-03T07:43:30.104Z,6.00
2018-05-03T07:45:57.625Z,6.43
2018-05-03T07:48:25.124Z,6.90
2018-05-03T07:50:52.686Z,7.07
2018-05-03T07:53:20.979Z,7.20
2018-05-03T07:55:48.542Z,6.00
2018-05-03T07:58:16.071Z,5.33
2018-05-03T08:00:43.584Z,6.13
2018-05-03T08:03:11.119Z,5.67
2018-05-03T08:05:38.640Z,6.07
2018-05-03T08:08:06.194Z,6.50
2018-05-03T08:10:33.714Z,6.70
2018-05-03T08:13:01.220Z,6.50
2018-05-03T08:15:28.747Z,6.70
2018-05-03T08:17:56.559Z,5.80
2018-05-03T08:20:24.107Z,6.40
2018-05-03T08:22:51.626Z,6.10
2018-05-03T08:25:19.290Z,5.27
2018-05-03T08:27:46.862Z,6.60
2018-05-03T08:30:14.377Z,5.53
2018-05-03T08:32:41.931Z,5.20
2018-05-03T08:35:09.437Z,5.27
2018-05-03T08:37:36.985Z,5.07
2018-05-03T08:40:04.506Z,5.47
2018-05-03T08:42:32.775Z,4.77
2018-05-03T08:45:01.088Z,4.77
2018-05-03T08:47:28.604Z,4.80
2018-05-03T08:49:56.913Z,8.30
2018-05-03T08:52:24.437Z,7.80
2018-05-03T08:54:52.748Z,5.30
2018-05-03T08:57:20.265Z,5.80
2018-05-03T08:59:47.774Z,5.17
2018-05-03T09:02:15.317Z,4.83
2018-05-03T09:04:42.869Z,5.07
2018-05-03T09:07:10.442Z,5.20
2018-05-03T09:09:37.948Z,4.43
2018-05-03T09:12:05.448Z,4.20
2018-05-03T09:14:32.983Z,4.30
2018-05-03T09:17:01.265Z,5.03
2018-05-03T09:19:29.570Z,5.03
2018-05-03T09:21:57.094Z,4.33
2018-05-03T09:24:25.392Z,4.10
2018-05-03T09:26:52.964Z,5.10
2018-05-03T09:29:21.222Z,5.63
2018-05-03T09:31:49.509Z,5.13
2018-05-03T09:34:17.031Z,4.13
2018-05-03T09:36:44.545Z,5.00
2018-05-03T09:39:12.164Z,5.23
2018-05-03T09:41:39.605Z,4.73
2018-05-03T09:44:07.916Z,5.37
2018-05-03T09:46:35.437Z,5.30
2018-05-03T09:49:02.954Z,4.10
2018-05-03T09:51:30.459Z,4.60
2018-05-03T09:53:57.975Z,3.70
2018-05-03T09:56:25.472Z,4.73
2018-05-03T09:58:52.991Z,4.80
2018-05-03T10:01:20.501Z,4.80
2018-05-03T10:03:48.809Z,4.70
2018-05-03T10:06:16.320Z,4.67
2018-05-03T10:08:43.857Z,4.47
2018-05-03T10:11:11.405Z,4.70
2018-05-03T10:13:38.930Z,5.30
2018-05-03T10:16:07.195Z,4.50
2018-05-03T10:18:35.479Z,4.10
2018-05-03T10:21:03.796Z,5.27
2018-05-03T10:23:31.325Z,4.93
2018-05-03T10:25:58.847Z,4.90
2018-05-03T10:28:26.372Z,5.17
2018-05-03T10:30:53.895Z,5.03
2018-05-03T10:33:22.180Z,4.97
2018-05-03T10:35:49.803Z,4.70
2018-05-03T10:38:17.983Z,6.10
2018-05-03T10:40:45.508Z,6.20
2018-05-03T10:43:13.028Z,5.23
2018-05-03T10:45:40.542Z,4.60
2018-05-03T10:48:08.069Z,4.83
2018-05-03T10:50:35.563Z,5.07
2018-05-03T10:53:03.093Z,3.70
2018-05-03T10:55:30.624Z,4.17
2018-05-03T10:57:58.137Z,4.73
2018-05-03T11:00:25.674Z,4.70
2018-05-03T11:02:53.183Z,5.17
2018-05-03T11:05:21.528Z,3.40
2018-05-03T11:07:49.000Z,5.27
2018-05-03T11:10:16.529Z,5.27
2018-05-03T11:12:44.800Z,3.83
2018-05-03T11:15:12.296Z,5.60
2018-05-03T11:17:39.840Z,5.07
2018-05-03T11:20:07.358Z,5.03
2018-05-03T11:22:34.868Z,5.07
2018-05-03T11:25:03.171Z,3.67
2018-05-03T11:27:31.450Z,4.87
2018-05-03T11:29:58.995Z,5.17
2018-05-03T11:32:27.277Z,4.70
2018-05-03T11:34:55.545Z,4.80
2018-05-03T11:37:23.848Z,5.23
2018-05-03T11:39:51.378Z,5.20
2018-05-03T11:42:19.659Z,4.47
2018-05-03T11:44:47.926Z,5.50
2018-05-03T11:47:16.238Z,5.13
2018-05-03T11:49:43.769Z,4.57
2018-05-03T11:52:12.061Z,4.60
2018-05-03T11:54:39.601Z,4.13
2018-05-03T11:57:07.873Z,4.47
2018-05-03T11:59:35.399Z,4.30
2018-05-03T12:02:02.904Z,5.60
2018-05-03T12:04:30.484Z,3.63
2018-05-03T12:06:57.986Z,4.70
2018-05-03T12:09:25.527Z,4.47
2018-05-03T12:11:53.032Z,5.53
2018-05-03T12:14:21.314Z,5.90
2018-05-03T12:16:49.595Z,5.00
2018-05-03T12:19:17.104Z,5.47
2018-05-03T12:21:44.633Z,4.30
2018-05-03T12:24:12.131Z,4.73
2018-05-03T12:26:39.639Z,5.10
2018-05-03T12:29:07.172Z,3.70
2018-05-03T12:31:35.461Z,4.30
2018-05-03T12:34:03.768Z,4.20
2018-05-03T12:36:31.270Z,4.80
2018-05-03T12:38:58.789Z,5.40
2018-05-03T12:41:26.311Z,4.03
2018-05-03T12:43:54.598Z,4.57
2018-05-03T12:46:22.141Z,5.00
2018-05-03T12:48:50.454Z,6.40
2018-05-03T12:51:17.990Z,4.93
2018-05-03T12:53:46.271Z,5.07
2018-05-03T12:56:13.819Z,6.07
2018-05-03T12:58:42.122Z,6.00
2018-05-03T13:01:09.633Z,5.67
2018-05-03T13:03:37.154Z,5.50
2018-05-03T13:06:04.676Z,4.33
2018-05-03T13:08:32.947Z,7.37
2018-05-03T13:11:01.432Z,4.80
2018-05-03T13:13:29.700Z,4.80
2018-05-03T13:15:57.963Z,6.27
2018-05-03T13:18:25.493Z,5.13
2018-05-03T13:20:53.005Z,5.23
2018-05-03T13:23:21.296Z,4.33
2018-05-03T13:25:48.819Z,5.70
2018-05-03T13:28:16.323Z,5.80
2018-05-03T13:30:43.853Z,4.67
2018-05-03T13:33:13.082Z,6.00
2018-05-03T13:35:40.633Z,4.43
2018-05-03T13:38:08.147Z,3.50
2018-05-03T13:40:35.657Z,5.97
2018-05-03T13:43:03.187Z,4.53
2018-05-03T13:45:31.465Z,5.10
2018-05-03T13:47:59.766Z,5.30
2018-05-03T13:50:27.259Z,4.80
2018-05-03T13:52:54.776Z,5.63
2018-05-03T13:55:22.314Z,4.97
2018-05-03T13:57:49.824Z,5.00
2018-05-03T14:00:17.344Z,5.60
2018-05-03T14:02:44.851Z,6.37
2018-05-03T14:05:12.392Z,5.57
2018-05-03T14:07:39.909Z,4.60
2018-05-03T14:10:08.175Z,6.73
2018-05-03T14:12:36.502Z,11.60
2018-05-03T14:15:04.023Z,4.67
2018-05-03T14:17:31.560Z,4.53
2018-05-03T14:19:59.090Z,5.87
2018-05-03T14:22:26.621Z,5.90
2018-05-03T14:24:54.140Z,5.33
2018-05-03T14:27:22.438Z,4.70
2018-05-03T14:29:49.985Z,5.30
2018-05-03T14:32:18.274Z,4.63
2018-05-03T14:34:45.790Z,5.67
2018-05-03T14:37:13.337Z,4.90
2018-05-03T14:39:40.860Z,4.43
2018-05-03T14:42:08.394Z,4.53
2018-05-03T14:44:36.684Z,4.77
2018-05-03T14:47:04.975Z,5.20
2018-05-03T14:49:32.509Z,4.73
2018-05-03T14:52:00.794Z,4.57
2018-05-03T14:54:29.108Z,4.60
2018-05-03T14:56:57.139Z,4.53
2018-05-03T14:59:25.216Z,4.10
2018-05-03T15:01:53.294Z,4.30
2018-05-03T15:04:21.385Z,4.23
2018-05-03T15:06:49.527Z,4.83
2018-05-03T15:09:17.581Z,5.17
2018-05-03T15:11:45.703Z,3.50
2018-05-03T15:14:14.059Z,4.53
2018-05-03T15:16:41.576Z,4.33
2018-05-03T15:19:09.109Z,2.90
2018-05-03T15:21:36.626Z,8.03
2018-05-03T15:24:04.908Z,4.70
2018-05-03T15:26:32.455Z,4.73
2018-05-03T15:29:00.748Z,3.70
2018-05-03T15:31:28.268Z,4.20
2018-05-03T15:33:55.780Z,3.37
2018-05-03T15:36:23.320Z,4.90
2018-05-03T15:38:50.815Z,4.20
2018-05-03T15:41:18.330Z,4.00
2018-05-03T15:43:46.613Z,6.43
2018-05-03T15:46:14.144Z,4.77
2018-05-03T15:48:41.702Z,5.10
2018-05-03T15:51:09.214Z,4.30
2018-05-03T15:53:36.730Z,4.13
2018-05-03T15:56:05.035Z,4.20
2018-05-03T15:58:32.544Z,4.23
2018-05-03T16:01:00.097Z,4.33
2018-05-03T16:03:27.596Z,3.57
2018-05-03T16:05:55.879Z,4.37
2018-05-03T16:08:23.421Z,3.70
2018-05-03T16:10:50.973Z,3.87
2018-05-03T16:13:19.276Z,3.73
2018-05-03T16:15:46.784Z,4.30
2018-05-03T16:18:14.312Z,4.23
2018-05-03T16:20:41.862Z,3.37
2018-05-03T16:23:09.378Z,4.23
2018-05-03T16:25:36.920Z,4.13
2018-05-03T16:28:04.436Z,4.07
2018-05-03T16:30:31.956Z,3.33
2018-05-03T16:32:59.484Z,4.20
2018-05-03T16:35:27.002Z,4.13
2018-05-03T16:37:54.556Z,3.57
2018-05-03T16:40:22.826Z,4.57
2018-05-03T16:42:51.127Z,4.30
2018-05-03T16:45:18.677Z,5.07
2018-05-03T16:47:46.947Z,4.33
2018-05-03T16:50:15.248Z,3.50
2018-05-03T16:52:42.766Z,3.73
2018-05-03T16:55:11.089Z,2.97
2018-05-03T16:57:38.626Z,4.20
2018-05-03T17:00:06.143Z,3.90
2018-05-03T17:02:33.674Z,3.33
2018-05-03T17:05:01.210Z,3.47
2018-05-03T17:07:28.720Z,3.33
2018-05-03T17:09:56.279Z,4.00
2018-05-03T17:12:23.783Z,3.50
2018-05-03T17:14:51.329Z,3.67
2018-05-03T17:17:19.615Z,3.67
2018-05-03T17:19:47.128Z,3.00
2018-05-03T17:22:14.666Z,3.00
2018-05-03T17:24:42.179Z,3.87
2018-05-03T17:27:10.506Z,4.43
2018-05-03T17:29:38.964Z,3.83
2018-05-03T17:32:06.465Z,4.80
2018-05-03T17:34:33.992Z,3.83
2018-05-03T17:37:01.497Z,4.50
2018-05-03T17:39:29.792Z,4.73
2018-05-03T17:41:57.317Z,4.50
2018-05-03T17:44:24.912Z,4.53
2018-05-03T17:46:52.387Z,4.40
2018-05-03T17:49:19.910Z,4.70
2018-05-03T17:51:48.183Z,4.70
2018-05-03T17:54:16.482Z,5.07
2018-05-03T17:56:44.017Z,4.20
2018-05-03T17:59:12.291Z,4.20
2018-05-03T18:01:40.600Z,4.07
2018-05-03T18:04:08.256Z,4.50
2018-05-03T18:06:35.787Z,4.80
2018-05-03T18:09:03.312Z,3.60
2018-05-03T18:11:30.877Z,4.10
2018-05-03T18:13:58.378Z,4.00
2018-05-03T18:16:26.678Z,4.20
2018-05-03T18:18:54.970Z,4.47
2018-05-03T18:21:22.518Z,4.47
2018-05-03T18:23:50.054Z,4.57
2018-05-03T18:26:17.631Z,6.87
2018-05-03T18:28:45.891Z,7.47
2018-05-03T18:31:14.176Z,6.50
2018-05-03T18:33:41.691Z,8.43
2018-05-03T18:36:09.226Z,7.20
2018-05-03T18:38:36.744Z,9.17
2018-05-03T18:41:05.040Z,11.70
2018-05-03T18:43:32.601Z,12.50
2018-05-03T18:46:00.135Z,12.13
2018-05-03T18:48:28.438Z,10.50
2018-05-03T18:50:55.957Z,13.77
2018-05-03T18:53:24.236Z,12.07
2018-05-03T18:55:52.540Z,12.90
2018-05-03T18:58:20.095Z,12.73
2018-05-03T19:00:48.414Z,16.10
2018-05-03T19:03:15.947Z,17.73
2018-05-03T19:05:43.477Z,14.97
2018-05-03T19:08:11.778Z,16.20
2018-05-03T19:10:39.288Z,19.00
2018-05-03T19:13:06.922Z,19.40
2018-05-03T19:15:34.362Z,16.97
2018-05-03T19:18:01.989Z,18.13
2018-05-03T19:20:30.205Z,17.70
2018-05-03T19:22:57.717Z,17.67
2018-05-03T19:25:26.038Z,21.57
2018-05-03T19:27:53.559Z,18.53
2018-05-03T19:30:21.828Z,20.60
2018-05-03T19:32:50.132Z,19.83
2018-05-03T19:35:17.650Z,21.00
2018-05-03T19:37:45.204Z,20.80
2018-05-03T19:40:12.709Z,20.30
2018-05-03T19:42:40.225Z,20.50
2018-05-03T19:45:07.771Z,21.37
2018-05-03T19:47:35.371Z,23.93
2018-05-03T19:50:02.849Z,23.10
2018-05-03T19:52:30.386Z,22.17
2018-05-03T19:54:58.688Z,21.90
2018-05-03T19:57:26.204Z,21.87
2018-05-03T19:59:53.714Z,21.47
2018-05-03T20:02:21.259Z,21.73
2018-05-03T20:04:49.179Z,23.10
2018-05-03T20:07:16.722Z,23.80
2018-05-03T20:09:44.263Z,21.90
2018-05-03T20:12:12.552Z,23.53
2018-05-03T20:14:40.181Z,22.80
2018-05-03T20:17:07.688Z,21.93
2018-05-03T20:19:35.232Z,22.30
2018-05-03T20:22:02.742Z,22.10
2018-05-03T20:24:30.277Z,23.27
2018-05-03T20:26:57.804Z,24.37
2018-05-03T20:29:26.099Z,18.93
2018-05-03T20:31:53.642Z,19.73
2018-05-03T20:34:21.177Z,19.53
2018-05-03T20:36:48.707Z,16.20
2018-05-03T20:39:16.992Z,16.83
2018-05-03T20:41:45.279Z,15.90
2018-05-03T20:44:12.843Z,13.07
2018-05-03T20:46:40.351Z,16.70
2018-05-03T20:49:07.857Z,16.40
2018-05-03T20:51:35.406Z,13.63
2018-05-03T20:54:02.913Z,12.60
2018-05-03T20:56:30.482Z,12.80
2018-05-03T20:58:58.005Z,11.10
2018-05-03T21:01:25.525Z,12.83
2018-05-03T21:03:53.816Z,11.67
2018-05-03T21:06:21.341Z,11.93
2018-05-03T21:08:48.868Z,11.90
2018-05-03T21:11:16.380Z,11.83
2018-05-03T21:13:44.671Z,12.53
2018-05-03T21:16:12.210Z,11.60
2018-05-03T21:18:40.509Z,11.70
2018-05-03T21:21:08.060Z,12.23
2018-05-03T21:23:36.346Z,12.40
2018-05-03T21:26:03.940Z,11.43
2018-05-03T21:28:32.181Z,11.90
2018-05-03T21:30:59.737Z,13.47
2018-05-03T21:33:27.264Z,12.33
2018-05-03T21:35:54.781Z,12.27
2018-05-03T21:38:22.288Z,13.27
2018-05-03T21:40:50.594Z,14.00
2018-05-03T21:43:18.117Z,14.30
2018-05-03T21:45:45.660Z,14.63
2018-05-03T21:48:13.193Z,14.53
2018-05-03T21:50:40.705Z,15.07
2018-05-03T21:53:08.989Z,15.40
2018-05-03T21:55:37.269Z,16.77
2018-05-03T21:58:05.580Z,16.20
2018-05-03T22:00:33.090Z,16.57
2018-05-03T22:03:01.385Z,15.63
2018-05-03T22:05:28.911Z,16.40
2018-05-03T22:07:56.548Z,15.43
2018-05-03T22:10:24.080Z,16.20
2018-05-03T22:12:51.588Z,16.57
2018-05-03T22:15:19.909Z,15.57
2018-05-03T22:17:47.447Z,16.17
2018-05-03T22:20:15.734Z,16.50
2018-05-03T22:22:44.028Z,16.60
2018-05-03T22:25:11.531Z,15.90
2018-05-03T22:27:39.075Z,15.00
2018-05-03T22:30:06.604Z,15.23
2018-05-03T22:32:34.120Z,16.07
2018-05-03T22:35:01.658Z,18.00
2018-05-03T22:37:29.191Z,18.57
2018-05-03T22:39:56.710Z,18.10
2018-05-03T22:42:25.014Z,17.87
2018-05-03T22:44:52.533Z,21.43
2018-05-03T22:47:20.081Z,22.50
2018-05-03T22:49:47.606Z,21.00
2018-05-03T22:52:15.133Z,23.77
2018-05-03T22:54:42.666Z,24.67
2018-05-03T22:57:10.193Z,23.47
2018-05-03T22:59:37.742Z,22.90
2018-05-03T23:02:05.248Z,23.70
2018-05-03T23:04:32.774Z,23.40
2018-05-03T23:07:00.325Z,23.87
2018-05-03T23:09:27.836Z,22.50
2018-05-03T23:11:56.136Z,23.90
2018-05-03T23:14:23.665Z,23.90
2018-05-03T23:16:51.955Z,22.10
2018-05-03T23:19:19.489Z,25.50
2018-05-03T23:21:47.001Z,24.80
2018-05-03T23:24:14.566Z,23.43
2018-05-03T23:26:42.076Z,24.03
2018-05-03T23:29:10.377Z,25.10
2018-05-03T23:31:37.900Z,24.23
2018-05-03T23:34:05.409Z,25.13
2018-05-03T23:36:32.944Z,23.70
2018-05-03T23:39:01.228Z,24.73
2018-05-03T23:41:28.749Z,24.20
2018-05-03T23:43:56.286Z,27.33
2018-05-03T23:46:23.837Z,26.40
2018-05-03T23:48:51.373Z,26.77
2018-05-03T23:51:18.907Z,28.27
2018-05-03T23:53:47.184Z,26.27
2018-05-03T23:56:15.476Z,28.60
2018-05-03T23:58:42.998Z,27.10
